Portada
METAR-TAF:

METAR-TAF

Aeroports :

Dodge County Airport

Juneau, Wisconsin, Estats Units d'Amèrica

latitud: 43-25-36N, longitud: 088-42-12W, altitud: 285 m

Observació

L'informe es va fer fa 29 minuts, a les 01:15 UTC
Vent 4 kt del Est
Temperatura 21°C
Humitat 94%
Pressió 1014 hPa
Visibilitat: 6.4 km
Núvols disperses a una alçada de 3400 ft
Cel ennuvolat a una alçada de 5500 ft
Cel cobert a una alçada de 9000 ft
tempesta, pluja

METAR: KUNU 280115Z AUTO 10004KT 4SM -TSRA SCT034 BKN055 OVC090 21/20 A2993 RMK AO2 LTG DSNT W THRU NE P0014 T02060197

Hora: 20:44 (01:44 UTC)


TAF: manca

Observacions i pronòstics meteorològics de més de 4000 aeroports (METAR i TAF).

Les estacions disponibles són els punts grocs i vermells al mapa.

Posi el ratolí al punt desitjat per veure el nom de l'estació.

Feu clic per veure les observacions i els pronòstics meteorològics.

Per canviar el mapa: feu clic els botons verds amb una creu de color negre per apropar; al botó verd amb un guió per allunyar la imatge; o en les fletxes verdes per a mapes adjacents.


METAR-TAF: